Airfield :
LOGIN :

Register | Disclaimer

   EN    FR    IT 

 










Legend :    VFR   Marginal VFR   IFR   Intensive IFR   Very Intensive IFR
Visi :
Ceiling :
>= 8 km
>= 3000ft
5 to 8 km
1000 to 3000 ft
1500m to 5 km
500 to 1000 ft
800 to 1500m
200 to 500 ft
< 800m
< 200 ft
Symbols :   Thunderstorms  Fog  Heavy snow  Heavy precipitations  Wind > 20 kt
SIGMETs :     Misc.  Thunderstorms  Icing  Turbulence  Mountain Waves  Volcanic Ashes






- Airport Elevation : 844 ft
- IATA code : OSR


LKMT - Ostrava-Mosnov

CURRENT METAR :
  • 290630Z 24008KT CAVOK 08/07 Q1015 NOSIG

EXPIRED METARs :
  • 290600Z 23011KT 9000 NSC 07/06 Q1015 NOSIG
  • 290530Z 23009KT 8000 NSC 07/06 Q1015 NOSIG
  • 290500Z 22008KT 9000 NSC 07/07 Q1015 NOSIG
  • 290430Z 23010KT 8000 NSC 07/06 Q1016 NOSIG
  • 290400Z 22007KT 9000 NSC 08/07 Q1016 NOSIG

TAF TAF LKMT
Valid from the 29 at 06:00 until the 30 at 12:00 UTC


290500Z 2906/3012 22010KT 9999 SCT040
TEMPO 2908/2916 24013G26KT 9000 -SHRA SCT030TCU
PROB30
TEMPO 2916/2919 5000 TSRA SCT025CB
BECMG 3010/3012 22016KT 9000 -RA BKN030



MET'MAP, your aeronautical weather chart ! - Copyright ORBIFLY December 2007 - Disclaimer

ORBIFLY MET'MAP TEAM :

Programming & Development : Alexandra Zaïnal
Concept & original design : Baudouin d'Aumeries
Assistance for programming : Marc-Olivier Méhu
Technical & hardware support : Manuel Goepfert

Contact : metmap@orbifly.com




SOURCES & CREDITS :

   NOAA